sensor_id;sensor_type;location;lat;lon;timestamp;P1;durP1;ratioP1;P2;durP2;ratioP2
417;SDS011;49;48.530;9.200;2022-09-21T00:01:25;7.50;;;5.50;;
417;SDS011;49;48.530;9.200;2022-09-21T00:03:53;10.10;;;5.30;;
417;SDS011;49;48.530;9.200;2022-09-21T00:06:21;8.73;;;6.10;;
417;SDS011;49;48.530;9.200;2022-09-21T00:08:51;10.30;;;6.80;;
417;SDS011;49;48.530;9.200;2022-09-21T00:11:19;11.10;;;6.30;;
417;SDS011;49;48.530;9.200;2022-09-21T00:13:50;11.00;;;6.00;;
417;SDS011;49;48.530;9.200;2022-09-21T00:16:19;24.57;;;6.90;;
417;SDS011;49;48.530;9.200;2022-09-21T00:18:46;9.20;;;6.03;;
417;SDS011;49;48.530;9.200;2022-09-21T00:21:13;10.10;;;5.87;;
417;SDS011;49;48.530;9.200;2022-09-21T00:23:41;11.40;;;5.50;;
417;SDS011;49;48.530;9.200;2022-09-21T00:26:11;11.90;;;6.13;;
417;SDS011;49;48.530;9.200;2022-09-21T00:28:39;16.63;;;6.33;;
417;SDS011;49;48.530;9.200;2022-09-21T00:31:08;10.10;;;5.50;;
417;SDS011;49;48.530;9.200;2022-09-21T00:33:36;8.03;;;6.20;;
417;SDS011;49;48.530;9.200;2022-09-21T00:36:04;12.63;;;6.23;;
417;SDS011;49;48.530;9.200;2022-09-21T00:38:33;8.83;;;5.13;;
417;SDS011;49;48.530;9.200;2022-09-21T00:41:00;13.67;;;6.57;;
417;SDS011;49;48.530;9.200;2022-09-21T00:43:30;16.47;;;6.97;;
417;SDS011;49;48.530;9.200;2022-09-21T00:46:00;10.23;;;5.73;;
417;SDS011;49;48.530;9.200;2022-09-21T00:48:29;14.97;;;6.37;;
417;SDS011;49;48.530;9.200;2022-09-21T00:50:58;10.27;;;6.27;;
417;SDS011;49;48.530;9.200;2022-09-21T00:53:28;8.30;;;5.60;;
417;SDS011;49;48.530;9.200;2022-09-21T00:55:56;19.23;;;5.33;;
417;SDS011;49;48.530;9.200;2022-09-21T00:58:25;9.07;;;6.30;;
417;SDS011;49;48.530;9.200;2022-09-21T01:00:56;14.90;;;6.93;;
417;SDS011;49;48.530;9.200;2022-09-21T01:03:24;8.90;;;6.50;;
417;SDS011;49;48.530;9.200;2022-09-21T01:05:51;17.73;;;5.20;;
417;SDS011;49;48.530;9.200;2022-09-21T01:08:18;15.47;;;5.33;;
417;SDS011;49;48.530;9.200;2022-09-21T01:11:03;6.80;;;4.80;;
417;SDS011;49;48.530;9.200;2022-09-21T01:13:42;8.70;;;5.13;;
417;SDS011;49;48.530;9.200;2022-09-21T01:16:18;9.37;;;5.87;;
417;SDS011;49;48.530;9.200;2022-09-21T01:18:51;15.40;;;6.33;;
417;SDS011;49;48.530;9.200;2022-09-21T01:21:27;13.83;;;6.20;;
417;SDS011;49;48.530;9.200;2022-09-21T01:24:06;10.03;;;6.50;;
417;SDS011;49;48.530;9.200;2022-09-21T01:26:57;13.67;;;6.50;;
417;SDS011;49;48.530;9.200;2022-09-21T01:29:45;12.07;;;6.00;;
417;SDS011;49;48.530;9.200;2022-09-21T01:32:17;11.80;;;6.33;;
417;SDS011;49;48.530;9.200;2022-09-21T01:34:48;16.70;;;5.77;;
417;SDS011;49;48.530;9.200;2022-09-21T01:37:19;7.90;;;6.30;;
417;SDS011;49;48.530;9.200;2022-09-21T01:39:52;11.93;;;6.50;;
417;SDS011;49;48.530;9.200;2022-09-21T01:42:22;7.27;;;5.43;;
417;SDS011;49;48.530;9.200;2022-09-21T01:44:53;10.03;;;6.40;;
417;SDS011;49;48.530;9.200;2022-09-21T01:47:23;9.27;;;6.10;;
417;SDS011;49;48.530;9.200;2022-09-21T01:49:51;12.10;;;5.63;;
417;SDS011;49;48.530;9.200;2022-09-21T01:52:30;17.57;;;10.73;;
417;SDS011;49;48.530;9.200;2022-09-21T01:55:02;32.73;;;18.33;;
417;SDS011;49;48.530;9.200;2022-09-21T01:57:33;18.07;;;10.53;;
417;SDS011;49;48.530;9.200;2022-09-21T02:00:07;8.80;;;6.37;;
417;SDS011;49;48.530;9.200;2022-09-21T02:02:35;9.37;;;5.70;;
417;SDS011;49;48.530;9.200;2022-09-21T02:05:06;12.70;;;7.30;;
417;SDS011;49;48.530;9.200;2022-09-21T02:07:33;9.97;;;6.40;;
417;SDS011;49;48.530;9.200;2022-09-21T02:10:03;16.57;;;8.13;;
417;SDS011;49;48.530;9.200;2022-09-21T02:12:32;11.00;;;7.50;;
417;SDS011;49;48.530;9.200;2022-09-21T02:14:59;14.80;;;7.27;;
417;SDS011;49;48.530;9.200;2022-09-21T02:17:31;19.00;;;14.40;;
417;SDS011;49;48.530;9.200;2022-09-21T02:20:06;23.70;;;7.77;;
417;SDS011;49;48.530;9.200;2022-09-21T02:22:44;22.20;;;7.77;;
417;SDS011;49;48.530;9.200;2022-09-21T02:25:23;21.63;;;7.37;;
417;SDS011;49;48.530;9.200;2022-09-21T02:28:03;11.53;;;7.23;;
417;SDS011;49;48.530;9.200;2022-09-21T02:30:33;12.47;;;7.20;;
417;SDS011;49;48.530;9.200;2022-09-21T02:33:03;12.37;;;7.90;;
417;SDS011;49;48.530;9.200;2022-09-21T02:35:37;13.97;;;7.23;;
417;SDS011;49;48.530;9.200;2022-09-21T02:38:10;11.43;;;6.20;;
417;SDS011;49;48.530;9.200;2022-09-21T02:40:45;10.70;;;5.47;;
417;SDS011;49;48.530;9.200;2022-09-21T02:43:18;9.10;;;5.53;;
417;SDS011;49;48.530;9.200;2022-09-21T02:45:51;9.93;;;6.17;;
417;SDS011;49;48.530;9.200;2022-09-21T02:48:23;10.60;;;5.67;;
417;SDS011;49;48.530;9.200;2022-09-21T02:50:56;9.93;;;5.97;;
417;SDS011;49;48.530;9.200;2022-09-21T02:53:30;12.10;;;6.10;;
417;SDS011;49;48.530;9.200;2022-09-21T02:56:01;12.70;;;6.23;;
417;SDS011;49;48.530;9.200;2022-09-21T02:58:31;11.40;;;7.20;;
417;SDS011;49;48.530;9.200;2022-09-21T03:01:00;9.50;;;6.63;;
417;SDS011;49;48.530;9.200;2022-09-21T03:03:34;11.10;;;7.23;;
417;SDS011;49;48.530;9.200;2022-09-21T03:06:01;10.20;;;6.57;;
417;SDS011;49;48.530;9.200;2022-09-21T03:08:28;11.67;;;7.13;;
417;SDS011;49;48.530;9.200;2022-09-21T03:10:55;20.33;;;6.50;;
417;SDS011;49;48.530;9.200;2022-09-21T03:13:22;11.97;;;7.37;;
417;SDS011;49;48.530;9.200;2022-09-21T03:15:57;10.90;;;7.10;;
417;SDS011;49;48.530;9.200;2022-09-21T03:18:25;12.37;;;7.27;;
417;SDS011;49;48.530;9.200;2022-09-21T03:20:53;28.23;;;8.03;;
417;SDS011;49;48.530;9.200;2022-09-21T03:23:20;9.47;;;7.00;;
417;SDS011;49;48.530;9.200;2022-09-21T03:25:47;42.97;;;7.60;;
417;SDS011;49;48.530;9.200;2022-09-21T03:28:16;41.20;;;7.40;;
417;SDS011;49;48.530;9.200;2022-09-21T03:30:55;16.53;;;7.17;;
417;SDS011;49;48.530;9.200;2022-09-21T03:33:22;10.70;;;6.43;;
417;SDS011;49;48.530;9.200;2022-09-21T03:35:50;10.27;;;6.40;;
417;SDS011;49;48.530;9.200;2022-09-21T03:38:19;8.17;;;6.77;;
417;SDS011;49;48.530;9.200;2022-09-21T03:40:46;8.50;;;5.50;;
417;SDS011;49;48.530;9.200;2022-09-21T03:43:14;9.93;;;6.50;;
417;SDS011;49;48.530;9.200;2022-09-21T03:45:41;12.10;;;7.97;;
417;SDS011;49;48.530;9.200;2022-09-21T03:48:10;11.53;;;7.13;;
417;SDS011;49;48.530;9.200;2022-09-21T03:50:39;8.43;;;6.33;;
417;SDS011;49;48.530;9.200;2022-09-21T03:53:08;7.67;;;5.93;;
417;SDS011;49;48.530;9.200;2022-09-21T03:55:35;6.83;;;5.60;;
417;SDS011;49;48.530;9.200;2022-09-21T03:58:02;7.10;;;5.20;;
417;SDS011;49;48.530;9.200;2022-09-21T04:00:29;7.50;;;4.87;;
417;SDS011;49;48.530;9.200;2022-09-21T04:02:57;6.00;;;4.70;;
417;SDS011;49;48.530;9.200;2022-09-21T04:05:24;6.50;;;4.50;;
417;SDS011;49;48.530;9.200;2022-09-21T04:07:52;5.57;;;4.63;;
417;SDS011;49;48.530;9.200;2022-09-21T04:10:21;5.30;;;4.50;;
417;SDS011;49;48.530;9.200;2022-09-21T04:12:55;5.80;;;4.87;;
417;SDS011;49;48.530;9.200;2022-09-21T04:15:22;5.17;;;4.50;;
417;SDS011;49;48.530;9.200;2022-09-21T04:17:49;5.93;;;4.83;;
417;SDS011;49;48.530;9.200;2022-09-21T04:20:17;7.20;;;5.70;;
417;SDS011;49;48.530;9.200;2022-09-21T04:22:45;5.20;;;5.00;;
417;SDS011;49;48.530;9.200;2022-09-21T04:25:12;27.57;;;5.50;;
417;SDS011;49;48.530;9.200;2022-09-21T04:27:41;5.17;;;4.60;;
417;SDS011;49;48.530;9.200;2022-09-21T04:30:09;5.83;;;4.83;;
417;SDS011;49;48.530;9.200;2022-09-21T04:32:37;5.83;;;5.03;;
417;SDS011;49;48.530;9.200;2022-09-21T04:35:04;7.77;;;5.07;;
417;SDS011;49;48.530;9.200;2022-09-21T04:37:31;6.10;;;4.57;;
417;SDS011;49;48.530;9.200;2022-09-21T04:39:58;6.93;;;4.23;;
417;SDS011;49;48.530;9.200;2022-09-21T04:42:25;4.70;;;3.70;;
417;SDS011;49;48.530;9.200;2022-09-21T04:44:54;6.70;;;4.60;;
417;SDS011;49;48.530;9.200;2022-09-21T04:47:21;7.57;;;5.17;;
417;SDS011;49;48.530;9.200;2022-09-21T04:49:49;8.10;;;5.63;;
417;SDS011;49;48.530;9.200;2022-09-21T04:52:17;5.97;;;4.70;;
417;SDS011;49;48.530;9.200;2022-09-21T04:54:44;8.10;;;5.70;;
417;SDS011;49;48.530;9.200;2022-09-21T04:57:11;5.30;;;4.10;;
417;SDS011;49;48.530;9.200;2022-09-21T04:59:38;6.07;;;4.83;;
417;SDS011;49;48.530;9.200;2022-09-21T05:02:06;6.50;;;5.27;;
417;SDS011;49;48.530;9.200;2022-09-21T05:04:33;7.47;;;5.17;;
417;SDS011;49;48.530;9.200;2022-09-21T05:07:00;7.33;;;5.07;;
417;SDS011;49;48.530;9.200;2022-09-21T05:09:27;4.97;;;4.40;;
417;SDS011;49;48.530;9.200;2022-09-21T05:12:11;5.43;;;4.37;;
417;SDS011;49;48.530;9.200;2022-09-21T05:14:38;5.90;;;4.73;;
417;SDS011;49;48.530;9.200;2022-09-21T05:17:09;4.70;;;4.43;;
417;SDS011;49;48.530;9.200;2022-09-21T05:19:36;7.40;;;4.73;;
417;SDS011;49;48.530;9.200;2022-09-21T05:22:03;6.77;;;4.53;;
417;SDS011;49;48.530;9.200;2022-09-21T05:24:30;7.07;;;4.57;;
417;SDS011;49;48.530;9.200;2022-09-21T05:26:57;16.80;;;7.90;;
417;SDS011;49;48.530;9.200;2022-09-21T05:29:24;14.90;;;7.47;;
417;SDS011;49;48.530;9.200;2022-09-21T05:31:53;25.27;;;14.57;;
417;SDS011;49;48.530;9.200;2022-09-21T05:34:38;19.27;;;7.97;;
417;SDS011;49;48.530;9.200;2022-09-21T05:37:17;67.37;;;36.07;;
417;SDS011;49;48.530;9.200;2022-09-21T05:40:02;45.03;;;23.80;;
417;SDS011;49;48.530;9.200;2022-09-21T05:42:31;19.10;;;10.00;;
417;SDS011;49;48.530;9.200;2022-09-21T05:44:58;11.20;;;6.47;;
417;SDS011;49;48.530;9.200;2022-09-21T05:47:26;10.37;;;6.23;;
417;SDS011;49;48.530;9.200;2022-09-21T05:50:11;17.33;;;7.73;;
417;SDS011;49;48.530;9.200;2022-09-21T05:52:46;10.63;;;7.20;;
417;SDS011;49;48.530;9.200;2022-09-21T05:55:20;14.93;;;11.30;;
417;SDS011;49;48.530;9.200;2022-09-21T05:57:57;19.90;;;13.63;;
417;SDS011;49;48.530;9.200;2022-09-21T06:00:31;27.40;;;15.33;;
417;SDS011;49;48.530;9.200;2022-09-21T06:03:21;18.30;;;12.40;;
417;SDS011;49;48.530;9.200;2022-09-21T06:05:54;9.23;;;5.80;;
417;SDS011;49;48.530;9.200;2022-09-21T06:08:21;7.10;;;5.40;;
417;SDS011;49;48.530;9.200;2022-09-21T06:10:48;13.70;;;8.30;;
417;SDS011;49;48.530;9.200;2022-09-21T06:13:15;10.23;;;6.07;;
417;SDS011;49;48.530;9.200;2022-09-21T06:15:42;5.57;;;4.73;;
417;SDS011;49;48.530;9.200;2022-09-21T06:18:09;4.37;;;3.90;;
417;SDS011;49;48.530;9.200;2022-09-21T06:20:36;11.40;;;4.37;;
417;SDS011;49;48.530;9.200;2022-09-21T06:23:05;6.77;;;3.67;;
417;SDS011;49;48.530;9.200;2022-09-21T06:25:33;12.50;;;8.00;;
417;SDS011;49;48.530;9.200;2022-09-21T06:28:01;5.00;;;3.77;;
417;SDS011;49;48.530;9.200;2022-09-21T06:30:29;6.27;;;4.07;;
417;SDS011;49;48.530;9.200;2022-09-21T06:32:57;5.53;;;3.80;;
417;SDS011;49;48.530;9.200;2022-09-21T06:35:25;3.93;;;3.23;;
417;SDS011;49;48.530;9.200;2022-09-21T06:37:55;7.17;;;3.40;;
417;SDS011;49;48.530;9.200;2022-09-21T06:40:24;4.37;;;3.43;;
417;SDS011;49;48.530;9.200;2022-09-21T06:42:54;4.67;;;3.73;;
417;SDS011;49;48.530;9.200;2022-09-21T06:45:22;7.60;;;3.80;;
417;SDS011;49;48.530;9.200;2022-09-21T06:47:48;4.50;;;3.80;;
417;SDS011;49;48.530;9.200;2022-09-21T06:50:15;27.63;;;19.47;;
417;SDS011;49;48.530;9.200;2022-09-21T06:52:42;5.63;;;4.00;;
417;SDS011;49;48.530;9.200;2022-09-21T06:55:09;5.20;;;3.77;;
417;SDS011;49;48.530;9.200;2022-09-21T06:57:37;5.47;;;4.00;;
417;SDS011;49;48.530;9.200;2022-09-21T07:00:05;4.23;;;3.60;;
417;SDS011;49;48.530;9.200;2022-09-21T07:02:34;10.27;;;3.80;;
417;SDS011;49;48.530;9.200;2022-09-21T07:05:01;6.00;;;3.80;;
417;SDS011;49;48.530;9.200;2022-09-21T07:07:28;6.10;;;4.00;;
417;SDS011;49;48.530;9.200;2022-09-21T07:09:56;16.73;;;4.20;;
417;SDS011;49;48.530;9.200;2022-09-21T07:12:25;8.53;;;4.43;;
417;SDS011;49;48.530;9.200;2022-09-21T07:14:54;17.27;;;4.87;;
417;SDS011;49;48.530;9.200;2022-09-21T07:17:21;7.17;;;4.60;;
417;SDS011;49;48.530;9.200;2022-09-21T07:19:48;6.20;;;4.37;;
417;SDS011;49;48.530;9.200;2022-09-21T07:22:15;5.07;;;4.10;;
417;SDS011;49;48.530;9.200;2022-09-21T07:24:41;11.77;;;4.30;;
417;SDS011;49;48.530;9.200;2022-09-21T07:27:08;5.93;;;4.00;;
417;SDS011;49;48.530;9.200;2022-09-21T07:29:35;7.93;;;4.80;;
417;SDS011;49;48.530;9.200;2022-09-21T07:32:03;5.30;;;4.30;;
417;SDS011;49;48.530;9.200;2022-09-21T07:34:33;8.10;;;4.80;;
417;SDS011;49;48.530;9.200;2022-09-21T07:37:00;11.53;;;5.00;;
417;SDS011;49;48.530;9.200;2022-09-21T07:39:27;8.70;;;4.87;;
417;SDS011;49;48.530;9.200;2022-09-21T07:41:55;8.10;;;5.00;;
417;SDS011;49;48.530;9.200;2022-09-21T07:44:22;7.23;;;4.63;;
417;SDS011;49;48.530;9.200;2022-09-21T07:46:49;7.47;;;5.33;;
417;SDS011;49;48.530;9.200;2022-09-21T07:49:17;7.43;;;4.60;;
417;SDS011;49;48.530;9.200;2022-09-21T07:51:44;9.20;;;4.30;;
417;SDS011;49;48.530;9.200;2022-09-21T07:54:11;11.27;;;5.50;;
417;SDS011;49;48.530;9.200;2022-09-21T07:56:39;8.57;;;4.90;;
417;SDS011;49;48.530;9.200;2022-09-21T07:59:27;7.27;;;5.57;;
417;SDS011;49;48.530;9.200;2022-09-21T08:01:56;9.50;;;5.90;;
417;SDS011;49;48.530;9.200;2022-09-21T08:04:25;9.23;;;6.30;;
417;SDS011;49;48.530;9.200;2022-09-21T08:06:52;10.43;;;6.40;;
417;SDS011;49;48.530;9.200;2022-09-21T08:09:19;9.80;;;7.10;;
417;SDS011;49;48.530;9.200;2022-09-21T08:11:45;11.03;;;7.40;;
417;SDS011;49;48.530;9.200;2022-09-21T08:14:12;12.93;;;7.43;;
417;SDS011;49;48.530;9.200;2022-09-21T08:16:43;11.60;;;7.37;;
417;SDS011;49;48.530;9.200;2022-09-21T08:19:11;9.97;;;6.33;;
417;SDS011;49;48.530;9.200;2022-09-21T08:21:39;11.63;;;7.07;;
417;SDS011;49;48.530;9.200;2022-09-21T08:24:06;11.53;;;6.90;;
417;SDS011;49;48.530;9.200;2022-09-21T08:26:33;7.80;;;6.73;;
417;SDS011;49;48.530;9.200;2022-09-21T08:29:00;12.63;;;6.87;;
417;SDS011;49;48.530;9.200;2022-09-21T08:31:27;8.40;;;6.30;;
417;SDS011;49;48.530;9.200;2022-09-21T08:34:02;9.30;;;6.20;;
417;SDS011;49;48.530;9.200;2022-09-21T08:36:29;11.67;;;6.67;;
417;SDS011;49;48.530;9.200;2022-09-21T08:38:57;12.40;;;6.70;;
417;SDS011;49;48.530;9.200;2022-09-21T08:41:25;14.43;;;7.10;;
417;SDS011;49;48.530;9.200;2022-09-21T08:44:09;17.00;;;8.00;;
417;SDS011;49;48.530;9.200;2022-09-21T08:46:40;12.77;;;8.33;;
417;SDS011;49;48.530;9.200;2022-09-21T08:49:10;11.07;;;8.00;;
417;SDS011;49;48.530;9.200;2022-09-21T08:51:43;18.10;;;9.53;;
417;SDS011;49;48.530;9.200;2022-09-21T08:54:15;22.30;;;13.07;;
417;SDS011;49;48.530;9.200;2022-09-21T08:56:47;14.10;;;8.03;;
417;SDS011;49;48.530;9.200;2022-09-21T08:59:14;11.37;;;6.60;;
417;SDS011;49;48.530;9.200;2022-09-21T09:01:46;14.20;;;8.60;;
417;SDS011;49;48.530;9.200;2022-09-21T09:04:25;9.93;;;4.70;;
417;SDS011;49;48.530;9.200;2022-09-21T09:07:08;11.20;;;5.20;;
417;SDS011;49;48.530;9.200;2022-09-21T09:09:56;15.23;;;7.40;;
417;SDS011;49;48.530;9.200;2022-09-21T09:12:37;9.83;;;5.60;;
417;SDS011;49;48.530;9.200;2022-09-21T09:15:15;10.90;;;6.40;;
417;SDS011;49;48.530;9.200;2022-09-21T09:18:07;7.87;;;5.20;;
417;SDS011;49;48.530;9.200;2022-09-21T09:20:38;9.73;;;5.17;;
417;SDS011;49;48.530;9.200;2022-09-21T09:23:10;12.40;;;4.87;;
417;SDS011;49;48.530;9.200;2022-09-21T09:25:45;5.23;;;3.97;;
417;SDS011;49;48.530;9.200;2022-09-21T09:28:18;6.43;;;3.40;;
417;SDS011;49;48.530;9.200;2022-09-21T09:30:51;15.33;;;4.13;;
417;SDS011;49;48.530;9.200;2022-09-21T09:33:24;6.40;;;3.70;;
417;SDS011;49;48.530;9.200;2022-09-21T09:35:54;10.13;;;3.60;;
417;SDS011;49;48.530;9.200;2022-09-21T09:38:28;7.10;;;3.57;;
417;SDS011;49;48.530;9.200;2022-09-21T09:44:13;5.90;;;3.33;;
417;SDS011;49;48.530;9.200;2022-09-21T09:46:59;7.70;;;3.40;;
417;SDS011;49;48.530;9.200;2022-09-21T09:49:37;4.90;;;3.27;;
417;SDS011;49;48.530;9.200;2022-09-21T09:52:14;8.83;;;3.67;;
417;SDS011;49;48.530;9.200;2022-09-21T09:54:41;10.97;;;4.30;;
417;SDS011;49;48.530;9.200;2022-09-21T09:57:10;11.63;;;3.00;;
417;SDS011;49;48.530;9.200;2022-09-21T09:59:40;7.70;;;3.50;;
417;SDS011;49;48.530;9.200;2022-09-21T10:02:18;5.53;;;3.07;;
417;SDS011;49;48.530;9.200;2022-09-21T10:04:53;16.90;;;9.37;;
417;SDS011;49;48.530;9.200;2022-09-21T10:07:33;7.93;;;2.90;;
417;SDS011;49;48.530;9.200;2022-09-21T10:10:02;3.60;;;3.10;;
417;SDS011;49;48.530;9.200;2022-09-21T10:12:47;19.57;;;3.47;;
417;SDS011;49;48.530;9.200;2022-09-21T10:15:16;7.50;;;3.90;;
417;SDS011;49;48.530;9.200;2022-09-21T10:17:43;7.60;;;4.63;;
417;SDS011;49;48.530;9.200;2022-09-21T10:20:13;7.60;;;3.70;;
417;SDS011;49;48.530;9.200;2022-09-21T10:22:42;7.53;;;4.60;;
417;SDS011;49;48.530;9.200;2022-09-21T10:25:13;14.80;;;6.00;;
417;SDS011;49;48.530;9.200;2022-09-21T10:27:42;7.40;;;2.90;;
417;SDS011;49;48.530;9.200;2022-09-21T10:30:30;7.90;;;5.13;;
417;SDS011;49;48.530;9.200;2022-09-21T10:32:58;6.73;;;2.90;;
417;SDS011;49;48.530;9.200;2022-09-21T10:35:25;8.97;;;3.30;;
417;SDS011;49;48.530;9.200;2022-09-21T10:38:07;6.03;;;3.07;;
417;SDS011;49;48.530;9.200;2022-09-21T10:40:35;8.43;;;3.63;;
417;SDS011;49;48.530;9.200;2022-09-21T10:43:03;8.50;;;3.10;;
417;SDS011;49;48.530;9.200;2022-09-21T10:45:32;4.53;;;3.00;;
417;SDS011;49;48.530;9.200;2022-09-21T10:48:06;12.60;;;3.13;;
417;SDS011;49;48.530;9.200;2022-09-21T10:50:35;6.83;;;3.00;;
417;SDS011;49;48.530;9.200;2022-09-21T10:53:10;6.37;;;3.07;;
417;SDS011;49;48.530;9.200;2022-09-21T10:55:40;5.93;;;2.87;;
417;SDS011;49;48.530;9.200;2022-09-21T10:58:10;14.63;;;3.80;;
417;SDS011;49;48.530;9.200;2022-09-21T11:00:41;6.93;;;3.23;;
417;SDS011;49;48.530;9.200;2022-09-21T11:06:10;5.73;;;3.43;;
417;SDS011;49;48.530;9.200;2022-09-21T11:08:43;9.70;;;3.00;;
417;SDS011;49;48.530;9.200;2022-09-21T11:11:19;3.87;;;2.80;;
417;SDS011;49;48.530;9.200;2022-09-21T11:14:06;3.87;;;2.90;;
417;SDS011;49;48.530;9.200;2022-09-21T11:16:43;9.70;;;3.47;;
417;SDS011;49;48.530;9.200;2022-09-21T11:19:16;7.23;;;2.67;;
417;SDS011;49;48.530;9.200;2022-09-21T11:21:51;4.23;;;2.37;;
417;SDS011;49;48.530;9.200;2022-09-21T11:24:25;9.77;;;2.77;;
417;SDS011;49;48.530;9.200;2022-09-21T11:26:59;6.63;;;2.40;;
417;SDS011;49;48.530;9.200;2022-09-21T11:29:32;4.70;;;2.70;;
417;SDS011;49;48.530;9.200;2022-09-21T11:32:18;3.80;;;2.40;;
417;SDS011;49;48.530;9.200;2022-09-21T11:38:03;5.67;;;2.43;;
417;SDS011;49;48.530;9.200;2022-09-21T11:40:48;3.77;;;2.37;;
417;SDS011;49;48.530;9.200;2022-09-21T11:43:42;3.60;;;2.20;;
417;SDS011;49;48.530;9.200;2022-09-21T11:46:23;3.77;;;2.13;;
417;SDS011;49;48.530;9.200;2022-09-21T11:48:57;3.03;;;2.00;;
417;SDS011;49;48.530;9.200;2022-09-21T11:51:48;3.30;;;1.93;;
417;SDS011;49;48.530;9.200;2022-09-21T11:54:31;4.60;;;2.10;;
417;SDS011;49;48.530;9.200;2022-09-21T11:57:22;11.80;;;2.30;;
417;SDS011;49;48.530;9.200;2022-09-21T12:02:56;3.80;;;2.30;;
417;SDS011;49;48.530;9.200;2022-09-21T12:05:45;4.30;;;2.33;;
417;SDS011;49;48.530;9.200;2022-09-21T12:08:28;4.67;;;2.20;;
417;SDS011;49;48.530;9.200;2022-09-21T12:11:21;3.50;;;2.07;;
417;SDS011;49;48.530;9.200;2022-09-21T12:13:57;6.37;;;2.10;;
417;SDS011;49;48.530;9.200;2022-09-21T12:16:33;4.17;;;2.37;;
417;SDS011;49;48.530;9.200;2022-09-21T12:19:06;2.20;;;1.80;;
417;SDS011;49;48.530;9.200;2022-09-21T12:21:40;2.73;;;1.90;;
417;SDS011;49;48.530;9.200;2022-09-21T12:24:12;4.20;;;2.00;;
417;SDS011;49;48.530;9.200;2022-09-21T12:26:41;2.27;;;1.80;;
417;SDS011;49;48.530;9.200;2022-09-21T12:29:11;3.50;;;2.07;;
417;SDS011;49;48.530;9.200;2022-09-21T12:31:42;5.43;;;1.93;;
417;SDS011;49;48.530;9.200;2022-09-21T12:34:16;4.00;;;2.67;;
417;SDS011;49;48.530;9.200;2022-09-21T12:36:49;3.50;;;2.20;;
417;SDS011;49;48.530;9.200;2022-09-21T12:39:25;5.47;;;2.30;;
417;SDS011;49;48.530;9.200;2022-09-21T12:41:56;4.20;;;2.20;;
417;SDS011;49;48.530;9.200;2022-09-21T12:44:27;5.10;;;1.90;;
417;SDS011;49;48.530;9.200;2022-09-21T12:47:16;3.30;;;1.93;;
417;SDS011;49;48.530;9.200;2022-09-21T12:49:48;4.37;;;1.93;;
417;SDS011;49;48.530;9.200;2022-09-21T12:52:21;3.50;;;1.90;;
417;SDS011;49;48.530;9.200;2022-09-21T12:54:52;3.10;;;1.90;;
417;SDS011;49;48.530;9.200;2022-09-21T12:57:28;6.10;;;2.53;;
417;SDS011;49;48.530;9.200;2022-09-21T13:00:08;3.97;;;2.37;;
417;SDS011;49;48.530;9.200;2022-09-21T13:02:39;2.50;;;1.70;;
417;SDS011;49;48.530;9.200;2022-09-21T13:05:11;3.70;;;1.83;;
417;SDS011;49;48.530;9.200;2022-09-21T13:07:54;1.90;;;1.80;;
417;SDS011;49;48.530;9.200;2022-09-21T13:10:42;2.80;;;1.83;;
417;SDS011;49;48.530;9.200;2022-09-21T13:13:16;3.30;;;2.30;;
417;SDS011;49;48.530;9.200;2022-09-21T13:15:54;2.00;;;1.83;;
417;SDS011;49;48.530;9.200;2022-09-21T13:18:23;3.13;;;2.00;;
417;SDS011;49;48.530;9.200;2022-09-21T13:20:53;6.67;;;2.20;;
417;SDS011;49;48.530;9.200;2022-09-21T13:23:26;6.80;;;2.90;;
417;SDS011;49;48.530;9.200;2022-09-21T13:26:03;2.73;;;1.90;;
417;SDS011;49;48.530;9.200;2022-09-21T13:29:00;4.80;;;1.70;;
417;SDS011;49;48.530;9.200;2022-09-21T13:31:58;2.80;;;2.10;;
417;SDS011;49;48.530;9.200;2022-09-21T13:34:33;2.70;;;2.00;;
417;SDS011;49;48.530;9.200;2022-09-21T13:43:20;5.40;;;1.83;;
417;SDS011;49;48.530;9.200;2022-09-21T13:46:01;2.10;;;1.90;;
417;SDS011;49;48.530;9.200;2022-09-21T13:48:28;6.07;;;1.90;;
417;SDS011;49;48.530;9.200;2022-09-21T13:50:56;2.30;;;1.87;;
417;SDS011;49;48.530;9.200;2022-09-21T13:53:28;4.70;;;2.23;;
417;SDS011;49;48.530;9.200;2022-09-21T13:56:07;2.57;;;2.07;;
417;SDS011;49;48.530;9.200;2022-09-21T13:58:43;1.90;;;1.90;;
417;SDS011;49;48.530;9.200;2022-09-21T14:01:13;2.70;;;2.03;;
417;SDS011;49;48.530;9.200;2022-09-21T14:03:42;2.80;;;1.90;;
417;SDS011;49;48.530;9.200;2022-09-21T14:06:13;2.70;;;1.90;;
417;SDS011;49;48.530;9.200;2022-09-21T14:08:47;2.40;;;1.97;;
417;SDS011;49;48.530;9.200;2022-09-21T14:11:19;5.90;;;2.47;;
417;SDS011;49;48.530;9.200;2022-09-21T14:14:02;2.70;;;2.07;;
417;SDS011;49;48.530;9.200;2022-09-21T14:22:36;4.43;;;2.07;;
417;SDS011;49;48.530;9.200;2022-09-21T14:25:24;2.10;;;1.90;;
417;SDS011;49;48.530;9.200;2022-09-21T14:28:11;7.90;;;1.87;;
417;SDS011;49;48.530;9.200;2022-09-21T14:30:40;2.27;;;1.90;;
417;SDS011;49;48.530;9.200;2022-09-21T14:33:19;3.53;;;2.63;;
417;SDS011;49;48.530;9.200;2022-09-21T14:35:51;3.17;;;1.83;;
417;SDS011;49;48.530;9.200;2022-09-21T14:38:20;3.37;;;1.73;;
417;SDS011;49;48.530;9.200;2022-09-21T14:40:50;3.63;;;2.10;;
417;SDS011;49;48.530;9.200;2022-09-21T14:43:20;3.67;;;2.20;;
417;SDS011;49;48.530;9.200;2022-09-21T14:46:00;3.00;;;1.93;;
417;SDS011;49;48.530;9.200;2022-09-21T14:48:41;3.90;;;2.50;;
417;SDS011;49;48.530;9.200;2022-09-21T14:51:20;4.60;;;2.27;;
417;SDS011;49;48.530;9.200;2022-09-21T14:53:56;2.57;;;2.00;;
417;SDS011;49;48.530;9.200;2022-09-21T14:59:26;2.27;;;1.90;;
417;SDS011;49;48.530;9.200;2022-09-21T15:02:12;2.07;;;1.77;;
417;SDS011;49;48.530;9.200;2022-09-21T15:04:46;5.20;;;2.03;;
417;SDS011;49;48.530;9.200;2022-09-21T15:07:31;4.27;;;2.10;;
417;SDS011;49;48.530;9.200;2022-09-21T15:10:24;3.30;;;2.03;;
417;SDS011;49;48.530;9.200;2022-09-21T15:16:16;4.00;;;2.27;;
417;SDS011;49;48.530;9.200;2022-09-21T15:18:58;2.70;;;2.03;;
417;SDS011;49;48.530;9.200;2022-09-21T15:24:17;4.20;;;2.10;;
417;SDS011;49;48.530;9.200;2022-09-21T15:26:47;11.67;;;2.07;;
417;SDS011;49;48.530;9.200;2022-09-21T15:29:25;6.43;;;2.17;;
417;SDS011;49;48.530;9.200;2022-09-21T15:31:54;44.33;;;5.20;;
417;SDS011;49;48.530;9.200;2022-09-21T15:34:22;77.90;;;8.60;;
417;SDS011;49;48.530;9.200;2022-09-21T15:36:49;36.73;;;5.10;;
417;SDS011;49;48.530;9.200;2022-09-21T15:39:21;39.90;;;5.10;;
417;SDS011;49;48.530;9.200;2022-09-21T15:41:53;43.07;;;4.97;;
417;SDS011;49;48.530;9.200;2022-09-21T15:44:37;11.23;;;2.40;;
417;SDS011;49;48.530;9.200;2022-09-21T15:47:05;16.53;;;3.90;;
417;SDS011;49;48.530;9.200;2022-09-21T15:49:40;15.00;;;2.70;;
417;SDS011;49;48.530;9.200;2022-09-21T15:54:45;4.90;;;2.40;;
417;SDS011;49;48.530;9.200;2022-09-21T16:01:09;8.50;;;2.27;;
417;SDS011;49;48.530;9.200;2022-09-21T16:04:07;13.40;;;2.90;;
417;SDS011;49;48.530;9.200;2022-09-21T16:06:39;8.50;;;2.80;;
417;SDS011;49;48.530;9.200;2022-09-21T16:12:22;5.50;;;2.50;;
417;SDS011;49;48.530;9.200;2022-09-21T16:14:58;11.43;;;2.53;;
417;SDS011;49;48.530;9.200;2022-09-21T16:17:27;3.80;;;2.20;;
417;SDS011;49;48.530;9.200;2022-09-21T16:20:16;6.83;;;2.40;;
417;SDS011;49;48.530;9.200;2022-09-21T16:22:47;8.30;;;2.20;;
417;SDS011;49;48.530;9.200;2022-09-21T16:25:20;3.97;;;2.30;;
417;SDS011;49;48.530;9.200;2022-09-21T16:27:54;4.80;;;2.00;;
417;SDS011;49;48.530;9.200;2022-09-21T16:30:42;3.37;;;2.10;;
417;SDS011;49;48.530;9.200;2022-09-21T16:39:14;7.27;;;2.10;;
417;SDS011;49;48.530;9.200;2022-09-21T16:41:43;6.60;;;2.07;;
417;SDS011;49;48.530;9.200;2022-09-21T16:44:19;9.63;;;2.10;;
417;SDS011;49;48.530;9.200;2022-09-21T16:46:51;2.50;;;2.30;;
417;SDS011;49;48.530;9.200;2022-09-21T16:49:24;3.20;;;2.50;;
417;SDS011;49;48.530;9.200;2022-09-21T16:51:53;3.83;;;2.20;;
417;SDS011;49;48.530;9.200;2022-09-21T16:54:22;6.30;;;2.30;;
417;SDS011;49;48.530;9.200;2022-09-21T16:56:51;3.30;;;2.30;;
417;SDS011;49;48.530;9.200;2022-09-21T16:59:19;7.93;;;2.63;;
417;SDS011;49;48.530;9.200;2022-09-21T17:01:47;4.43;;;2.30;;
417;SDS011;49;48.530;9.200;2022-09-21T17:04:17;4.07;;;2.37;;
417;SDS011;49;48.530;9.200;2022-09-21T17:06:44;3.40;;;2.37;;
417;SDS011;49;48.530;9.200;2022-09-21T17:09:19;2.20;;;2.10;;
417;SDS011;49;48.530;9.200;2022-09-21T17:11:53;9.83;;;2.50;;
417;SDS011;49;48.530;9.200;2022-09-21T17:14:25;12.63;;;2.40;;
417;SDS011;49;48.530;9.200;2022-09-21T17:16:59;8.63;;;2.67;;